createdAt,value
2023-02-06T00:02:08.876Z,4.38
2023-02-06T00:04:43.131Z,4.82
2023-02-06T00:07:16.258Z,4.63
2023-02-06T00:09:49.034Z,6.28
2023-02-06T00:12:22.294Z,5.10
2023-02-06T00:14:55.098Z,4.53
2023-02-06T00:17:27.951Z,4.50
2023-02-06T00:20:02.223Z,4.57
2023-02-06T00:22:35.607Z,4.82
2023-02-06T00:25:09.224Z,4.30
2023-02-06T00:27:42.609Z,5.15
2023-02-06T00:30:15.875Z,5.05
2023-02-06T00:32:48.966Z,5.45
2023-02-06T00:35:23.309Z,4.90
2023-02-06T00:37:56.294Z,5.97
2023-02-06T00:40:29.865Z,4.88
2023-02-06T00:43:02.821Z,4.30
2023-02-06T00:45:35.896Z,5.70
2023-02-06T00:48:10.218Z,5.35
2023-02-06T00:50:44.578Z,5.75
2023-02-06T00:53:17.720Z,5.20
2023-02-06T00:55:50.625Z,4.63
2023-02-06T00:58:23.638Z,4.78
2023-02-06T01:00:56.666Z,5.57
2023-02-06T01:03:29.698Z,6.05
2023-02-06T01:06:04.009Z,5.10
2023-02-06T01:08:37.300Z,5.20
2023-02-06T01:11:12.030Z,5.38
2023-02-06T01:13:44.965Z,5.75
2023-02-06T01:16:19.860Z,6.50
2023-02-06T01:18:52.880Z,6.75
2023-02-06T01:21:27.468Z,6.50
2023-02-06T01:24:00.393Z,5.78
2023-02-06T01:26:33.284Z,5.95
2023-02-06T01:29:06.330Z,7.03
2023-02-06T01:31:39.245Z,6.18
2023-02-06T01:34:12.660Z,6.03
2023-02-06T01:36:46.935Z,6.57
2023-02-06T01:39:19.911Z,7.75
2023-02-06T01:41:52.791Z,6.78
2023-02-06T01:44:26.640Z,6.45
2023-02-06T01:46:59.869Z,6.80
2023-02-06T01:49:37.170Z,7.68
2023-02-06T01:52:16.581Z,7.05
2023-02-06T01:54:54.626Z,5.93
2023-02-06T01:57:28.433Z,8.02
2023-02-06T02:00:05.333Z,7.53
2023-02-06T02:02:43.024Z,7.47
2023-02-06T02:05:18.855Z,7.70
2023-02-06T02:08:01.268Z,8.20
2023-02-06T02:10:34.956Z,8.65
2023-02-06T02:13:07.822Z,7.32
2023-02-06T02:15:47.717Z,8.45
2023-02-06T02:18:34.193Z,7.28
2023-02-06T02:21:43.340Z,9.13
2023-02-06T02:24:25.032Z,7.80
2023-02-06T02:27:26.788Z,8.27
2023-02-06T02:30:39.701Z,8.30
2023-02-06T02:33:45.963Z,7.85
2023-02-06T02:36:25.935Z,10.38
2023-02-06T02:39:08.210Z,9.05
2023-02-06T02:41:47.397Z,8.43
2023-02-06T02:44:28.792Z,10.05
2023-02-06T02:47:05.193Z,9.18
2023-02-06T02:49:39.355Z,9.10
2023-02-06T02:52:13.812Z,10.40
2023-02-06T02:54:46.834Z,12.23
2023-02-06T02:57:27.043Z,13.13
2023-02-06T03:00:02.460Z,10.65
2023-02-06T03:02:38.896Z,9.60
2023-02-06T03:05:13.640Z,8.88
2023-02-06T03:07:55.534Z,9.65
2023-02-06T03:13:15.038Z,10.73
2023-02-06T03:15:56.808Z,10.00
2023-02-06T03:18:36.050Z,9.93
2023-02-06T03:21:12.454Z,9.15
2023-02-06T03:23:49.378Z,9.60
2023-02-06T03:26:27.161Z,10.00
2023-02-06T03:29:03.011Z,10.30
2023-02-06T03:31:40.223Z,9.73
2023-02-06T03:34:19.245Z,9.98
2023-02-06T03:36:54.128Z,8.93
2023-02-06T03:39:28.860Z,10.30
2023-02-06T03:42:03.535Z,15.35
2023-02-06T03:44:41.775Z,8.75
2023-02-06T03:47:17.476Z,8.68
2023-02-06T03:49:52.077Z,9.40
2023-02-06T03:52:30.262Z,10.10
2023-02-06T03:55:09.548Z,11.52
2023-02-06T03:57:45.725Z,10.68
2023-02-06T04:00:19.127Z,9.65
2023-02-06T04:02:53.700Z,10.40
2023-02-06T04:05:27.166Z,9.70
2023-02-06T04:08:00.054Z,10.75
2023-02-06T04:10:34.765Z,9.30
2023-02-06T04:13:07.710Z,10.77
2023-02-06T04:15:40.612Z,10.73
2023-02-06T04:18:13.625Z,10.15
2023-02-06T04:20:46.491Z,10.40
2023-02-06T04:23:19.737Z,9.60
2023-02-06T04:25:53.944Z,10.55
2023-02-06T04:28:27.033Z,9.88
2023-02-06T04:31:00.039Z,9.18
2023-02-06T04:33:33.027Z,8.40
2023-02-06T04:36:06.235Z,10.35
2023-02-06T04:38:39.140Z,10.27
2023-02-06T04:41:13.770Z,9.73
2023-02-06T04:43:46.625Z,9.95
2023-02-06T04:46:19.622Z,8.90
2023-02-06T04:48:52.514Z,10.10
2023-02-06T04:51:25.425Z,9.30
2023-02-06T04:53:58.339Z,10.07
2023-02-06T04:56:32.928Z,10.68
2023-02-06T04:59:06.119Z,9.77
2023-02-06T05:01:39.079Z,10.13
2023-02-06T05:04:11.987Z,9.48
2023-02-06T05:06:44.872Z,9.95
2023-02-06T05:09:17.783Z,10.20
2023-02-06T05:11:52.076Z,11.93
2023-02-06T05:14:25.187Z,10.10
2023-02-06T05:16:58.036Z,9.60
2023-02-06T05:19:30.948Z,10.45
2023-02-06T05:22:03.838Z,8.70
2023-02-06T05:24:36.787Z,9.82
2023-02-06T05:27:11.072Z,9.50
2023-02-06T05:29:43.952Z,9.75
2023-02-06T05:32:18.354Z,8.75
2023-02-06T05:34:51.313Z,8.68
2023-02-06T05:37:24.205Z,10.30
2023-02-06T05:39:59.769Z,9.13
2023-02-06T05:42:34.351Z,9.43
2023-02-06T05:45:08.188Z,12.07
2023-02-06T05:47:41.062Z,9.55
2023-02-06T05:50:14.158Z,11.38
2023-02-06T05:52:47.145Z,10.13
2023-02-06T05:55:20.360Z,9.07
2023-02-06T05:57:54.707Z,10.32
2023-02-06T06:00:27.785Z,10.43
2023-02-06T06:03:00.780Z,9.95
2023-02-06T06:05:34.200Z,11.05
2023-02-06T06:08:07.500Z,9.93
2023-02-06T06:10:40.405Z,10.38
2023-02-06T06:13:14.598Z,10.57
2023-02-06T06:15:50.688Z,11.80
2023-02-06T06:18:23.633Z,10.68
2023-02-06T06:20:56.586Z,11.88
2023-02-06T06:23:29.418Z,10.38
2023-02-06T06:26:02.390Z,11.85
2023-02-06T06:28:38.613Z,11.20
2023-02-06T06:31:12.811Z,11.27
2023-02-06T06:33:46.385Z,11.00
2023-02-06T06:36:19.408Z,12.43
2023-02-06T06:38:52.316Z,12.88
2023-02-06T06:41:25.212Z,11.23
2023-02-06T06:44:00.108Z,11.30
2023-02-06T06:46:32.992Z,13.60
2023-02-06T06:49:05.908Z,12.35
2023-02-06T06:51:38.890Z,11.38
2023-02-06T06:54:11.779Z,11.88
2023-02-06T06:56:44.627Z,13.40
2023-02-06T06:59:18.877Z,12.32
2023-02-06T07:01:52.681Z,13.70
2023-02-06T07:04:29.526Z,13.32
2023-02-06T07:07:02.396Z,13.35
2023-02-06T07:09:35.468Z,12.25
2023-02-06T07:12:08.732Z,15.43
2023-02-06T07:14:42.938Z,14.32
2023-02-06T07:17:15.803Z,15.75
2023-02-06T07:19:51.463Z,14.23
2023-02-06T07:22:25.609Z,11.80
2023-02-06T07:24:58.691Z,15.82
2023-02-06T07:27:31.547Z,17.77
2023-02-06T07:30:06.654Z,16.23
2023-02-06T07:32:40.590Z,17.23
2023-02-06T07:35:15.298Z,16.33
2023-02-06T07:37:48.187Z,15.38
2023-02-06T07:40:21.275Z,16.10
2023-02-06T07:42:54.224Z,15.10
2023-02-06T07:45:28.523Z,18.23
2023-02-06T07:48:04.533Z,19.90
2023-02-06T07:50:37.733Z,17.40
2023-02-06T07:53:10.630Z,14.25
2023-02-06T07:55:43.498Z,17.75
2023-02-06T07:58:16.422Z,16.25
2023-02-06T08:00:50.713Z,17.13
2023-02-06T08:03:23.683Z,15.15
2023-02-06T08:05:56.662Z,16.35
2023-02-06T08:08:29.614Z,19.42
2023-02-06T08:11:06.059Z,14.00
2023-02-06T08:13:39.016Z,14.40
2023-02-06T08:16:16.534Z,13.27
2023-02-06T08:18:49.472Z,14.18
2023-02-06T08:21:23.545Z,16.02
2023-02-06T08:23:57.308Z,15.82
2023-02-06T08:26:31.392Z,13.02
2023-02-06T08:29:06.518Z,15.38
2023-02-06T08:31:42.977Z,14.38
2023-02-06T08:34:16.502Z,14.75
2023-02-06T08:36:49.435Z,17.70
2023-02-06T08:39:22.352Z,14.02
2023-02-06T08:41:55.249Z,16.48
2023-02-06T08:44:28.153Z,14.23
2023-02-06T08:47:09.971Z,13.90
2023-02-06T08:49:43.432Z,15.93
2023-02-06T08:52:16.298Z,14.05
2023-02-06T08:54:51.210Z,13.77
2023-02-06T08:57:24.148Z,17.25
2023-02-06T08:59:57.104Z,13.85
2023-02-06T09:02:31.673Z,14.80
2023-02-06T09:05:05.573Z,15.30
2023-02-06T09:07:38.424Z,15.18
2023-02-06T09:10:26.713Z,14.05
2023-02-06T09:13:00.482Z,13.35
2023-02-06T09:15:33.351Z,14.88
2023-02-06T09:18:07.708Z,17.75
2023-02-06T09:20:40.657Z,15.02
2023-02-06T09:23:13.546Z,16.73
2023-02-06T09:25:46.758Z,13.95
2023-02-06T09:28:19.673Z,15.02
2023-02-06T09:30:52.705Z,15.27
2023-02-06T09:33:27.488Z,13.75
2023-02-06T09:36:04.344Z,12.55
2023-02-06T09:38:39.396Z,12.02
2023-02-06T09:41:18.103Z,12.90
2023-02-06T09:43:53.437Z,12.32
2023-02-06T09:46:31.474Z,12.60
2023-02-06T09:49:12.886Z,12.23
2023-02-06T09:52:00.652Z,14.00
2023-02-06T09:54:43.143Z,15.15
2023-02-06T09:57:20.883Z,13.75
2023-02-06T10:00:00.561Z,14.25
2023-02-06T10:02:51.688Z,15.20
2023-02-06T10:05:42.306Z,11.70
2023-02-06T10:08:20.593Z,13.10
2023-02-06T10:10:56.183Z,10.98
2023-02-06T10:13:34.036Z,16.83
2023-02-06T10:16:16.498Z,14.38
2023-02-06T10:18:53.036Z,12.38
2023-02-06T10:21:32.632Z,15.45
2023-02-06T10:24:14.846Z,14.05
2023-02-06T10:26:49.045Z,13.85
2023-02-06T10:29:26.623Z,13.55
2023-02-06T10:32:11.609Z,14.43
2023-02-06T10:35:02.250Z,14.20
2023-02-06T10:38:06.409Z,13.98
2023-02-06T10:40:47.372Z,15.80
2023-02-06T10:43:31.038Z,11.23
2023-02-06T10:46:19.935Z,11.70
2023-02-06T10:48:59.792Z,12.10
2023-02-06T10:51:34.907Z,11.63
2023-02-06T10:54:17.062Z,9.85
2023-02-06T10:56:52.478Z,9.05
2023-02-06T10:59:30.145Z,10.27
2023-02-06T11:02:19.212Z,11.48
2023-02-06T11:04:57.074Z,10.50
2023-02-06T11:07:32.778Z,11.05
2023-02-06T11:10:08.103Z,12.52
2023-02-06T11:12:44.314Z,10.68
2023-02-06T11:15:24.820Z,9.23
2023-02-06T11:17:58.006Z,10.40
2023-02-06T11:20:34.033Z,9.98
2023-02-06T11:23:17.915Z,9.07
2023-02-06T11:26:06.158Z,9.98
2023-02-06T11:28:42.750Z,10.25
2023-02-06T11:31:15.904Z,9.43
2023-02-06T11:33:51.769Z,9.27
2023-02-06T11:36:28.735Z,9.10
2023-02-06T11:39:03.881Z,8.68
2023-02-06T11:41:38.535Z,8.20
2023-02-06T11:44:15.583Z,8.20
2023-02-06T11:46:48.439Z,13.70
2023-02-06T11:49:27.002Z,9.05
2023-02-06T11:52:01.379Z,8.57
2023-02-06T11:54:35.957Z,8.95
2023-02-06T11:57:22.652Z,9.23
2023-02-06T11:59:57.352Z,10.52
2023-02-06T12:02:33.053Z,10.70
2023-02-06T12:05:13.075Z,8.90
2023-02-06T12:07:50.769Z,10.15
2023-02-06T12:10:25.344Z,8.48
2023-02-06T12:13:08.057Z,10.18
2023-02-06T12:15:47.528Z,9.68
2023-02-06T12:18:36.179Z,7.93
2023-02-06T12:21:15.845Z,7.68
2023-02-06T12:23:53.564Z,10.63
2023-02-06T12:26:29.791Z,7.90
2023-02-06T12:29:13.167Z,12.45
2023-02-06T12:31:56.810Z,9.30
2023-02-06T12:34:42.578Z,7.93
2023-02-06T12:37:21.617Z,11.32
2023-02-06T12:39:54.530Z,9.90
2023-02-06T12:42:39.468Z,15.07
2023-02-06T12:45:23.031Z,10.20
2023-02-06T12:48:00.631Z,11.07
2023-02-06T12:50:39.419Z,9.35
2023-02-06T12:53:18.675Z,9.07
2023-02-06T12:55:59.024Z,7.70
2023-02-06T12:58:47.153Z,11.38
2023-02-06T13:01:34.756Z,11.05
2023-02-06T13:04:14.228Z,11.55
2023-02-06T13:06:53.229Z,9.75
2023-02-06T13:09:30.153Z,9.27
2023-02-06T13:12:16.045Z,9.70
2023-02-06T13:14:50.982Z,9.07
2023-02-06T13:17:27.876Z,11.10
2023-02-06T13:20:07.977Z,11.65
2023-02-06T13:22:46.339Z,8.90
2023-02-06T13:25:52.508Z,9.50
2023-02-06T13:28:58.193Z,12.55
2023-02-06T13:31:34.502Z,9.13
2023-02-06T13:34:16.956Z,8.90
2023-02-06T13:36:53.463Z,8.68
2023-02-06T13:39:34.422Z,11.77
2023-02-06T13:42:29.350Z,9.87
2023-02-06T13:45:06.369Z,9.77
2023-02-06T13:48:14.159Z,7.72
2023-02-06T13:51:05.323Z,7.95
2023-02-06T13:53:54.773Z,10.77
2023-02-06T13:56:46.410Z,8.13
2023-02-06T13:59:22.951Z,8.43
2023-02-06T14:01:56.631Z,9.55
2023-02-06T14:04:33.442Z,8.48
2023-02-06T14:07:45.332Z,9.45
2023-02-06T14:10:36.143Z,8.57
2023-02-06T14:13:29.699Z,7.30
2023-02-06T14:16:18.407Z,9.55
2023-02-06T14:18:58.129Z,9.77
2023-02-06T14:21:43.403Z,9.00
2023-02-06T14:24:40.105Z,9.10
2023-02-06T14:27:29.739Z,9.32
2023-02-06T14:30:16.634Z,9.27
2023-02-06T14:32:58.323Z,10.30
2023-02-06T14:35:57.768Z,9.30
2023-02-06T14:38:58.847Z,10.82
2023-02-06T14:41:39.319Z,7.30
2023-02-06T14:44:19.173Z,8.48
2023-02-06T14:46:52.280Z,6.18
2023-02-06T14:49:32.484Z,6.22
2023-02-06T14:52:06.910Z,7.20
2023-02-06T14:54:39.989Z,7.53
2023-02-06T14:57:19.960Z,10.25
2023-02-06T14:59:55.862Z,6.38
2023-02-06T15:02:32.386Z,6.43
2023-02-06T15:05:06.748Z,7.70
2023-02-06T15:07:40.004Z,7.22
2023-02-06T15:10:16.172Z,4.93
2023-02-06T15:12:54.144Z,6.25
2023-02-06T15:15:29.229Z,7.95
2023-02-06T15:18:04.592Z,6.75
2023-02-06T15:20:40.317Z,4.72
2023-02-06T15:23:18.706Z,6.47
2023-02-06T15:26:03.964Z,6.40
2023-02-06T15:28:39.468Z,7.93
2023-02-06T15:31:19.106Z,6.93
2023-02-06T15:33:55.197Z,5.82
2023-02-06T15:36:32.366Z,8.10
2023-02-06T15:39:07.809Z,7.85
2023-02-06T15:41:42.448Z,7.55
2023-02-06T15:44:25.291Z,8.75
2023-02-06T15:46:59.199Z,5.03
2023-02-06T15:49:38.126Z,8.00
2023-02-06T15:52:12.172Z,7.72
2023-02-06T15:54:58.542Z,7.03
2023-02-06T15:57:34.095Z,5.32
2023-02-06T16:00:23.541Z,6.15
2023-02-06T16:03:02.816Z,7.60
2023-02-06T16:05:38.511Z,6.93
2023-02-06T16:08:17.581Z,7.25
2023-02-06T16:10:52.604Z,5.97
2023-02-06T16:13:28.844Z,7.45
2023-02-06T16:16:07.582Z,7.80
2023-02-06T16:18:42.653Z,9.23
2023-02-06T16:21:24.744Z,9.85
2023-02-06T16:24:08.056Z,6.28
2023-02-06T16:26:44.642Z,10.13
2023-02-06T16:29:26.164Z,9.10
2023-02-06T16:32:02.976Z,6.85
2023-02-06T16:34:40.666Z,8.93
2023-02-06T16:37:15.315Z,9.18
2023-02-06T16:39:48.721Z,9.45
2023-02-06T16:42:24.024Z,11.00
2023-02-06T16:45:01.525Z,9.05
2023-02-06T16:47:35.951Z,10.90
2023-02-06T16:50:10.536Z,11.50
2023-02-06T16:52:49.385Z,8.73
2023-02-06T16:55:24.615Z,8.23
2023-02-06T16:58:00.686Z,6.90
2023-02-06T17:00:33.752Z,6.43
2023-02-06T17:03:08.124Z,7.38
2023-02-06T17:05:41.764Z,10.38
2023-02-06T17:08:17.621Z,7.53
2023-02-06T17:10:51.297Z,7.90
2023-02-06T17:13:25.746Z,7.97
2023-02-06T17:15:58.790Z,6.35
2023-02-06T17:18:33.179Z,7.60
2023-02-06T17:21:06.414Z,6.25
2023-02-06T17:23:39.339Z,7.70
2023-02-06T17:26:14.268Z,7.55
2023-02-06T17:28:47.711Z,5.53
2023-02-06T17:31:21.870Z,9.25
2023-02-06T17:33:56.268Z,8.93
2023-02-06T17:36:32.469Z,7.50
2023-02-06T17:39:05.576Z,7.38
2023-02-06T17:41:38.540Z,7.32
2023-02-06T17:44:12.015Z,6.40
2023-02-06T17:46:45.729Z,9.70
2023-02-06T17:49:20.086Z,8.52
2023-02-06T17:51:53.074Z,9.73
2023-02-06T17:54:25.981Z,8.07
2023-02-06T17:56:59.226Z,7.60
2023-02-06T17:59:32.139Z,8.65
2023-02-06T18:02:05.251Z,7.28
2023-02-06T18:04:39.503Z,6.80
2023-02-06T18:07:12.591Z,7.57
2023-02-06T18:09:45.541Z,6.95
2023-02-06T18:12:19.036Z,7.95
2023-02-06T18:14:51.962Z,7.50
2023-02-06T18:17:24.984Z,8.23
2023-02-06T18:19:59.573Z,6.70
2023-02-06T18:22:38.822Z,7.28
2023-02-06T18:25:15.263Z,6.88
2023-02-06T18:27:48.237Z,7.45
2023-02-06T18:30:21.236Z,6.32
2023-02-06T18:32:54.195Z,9.75
2023-02-06T18:35:28.929Z,6.72
2023-02-06T18:38:01.958Z,6.68
2023-02-06T18:40:35.062Z,7.75
2023-02-06T18:43:07.676Z,9.82
2023-02-06T18:45:41.746Z,7.80
2023-02-06T18:48:15.013Z,6.78
2023-02-06T18:50:49.339Z,11.00
2023-02-06T18:53:22.272Z,8.45
2023-02-06T18:56:00.824Z,8.75
2023-02-06T18:58:34.784Z,6.72
2023-02-06T19:01:13.146Z,9.35
2023-02-06T19:03:47.299Z,7.85
2023-02-06T19:06:24.098Z,9.45
2023-02-06T19:09:00.122Z,8.57
2023-02-06T19:11:33.334Z,8.43
2023-02-06T19:14:10.000Z,8.52
2023-02-06T19:16:44.661Z,7.18
2023-02-06T19:19:18.324Z,9.43
2023-02-06T19:21:52.628Z,9.95
2023-02-06T19:24:26.314Z,6.85
2023-02-06T19:26:59.271Z,9.45
2023-02-06T19:29:36.132Z,9.40
2023-02-06T19:32:10.697Z,12.30
2023-02-06T19:34:45.295Z,9.63
2023-02-06T19:37:19.613Z,9.00
2023-02-06T19:39:52.636Z,10.32
2023-02-06T19:42:25.720Z,10.48
2023-02-06T19:44:58.718Z,8.05
2023-02-06T19:47:31.589Z,10.07
2023-02-06T19:50:04.813Z,9.85
2023-02-06T19:52:39.097Z,9.77
2023-02-06T19:55:12.347Z,11.48
2023-02-06T19:57:45.230Z,9.02
2023-02-06T20:00:18.608Z,11.05
2023-02-06T20:02:51.937Z,9.73
2023-02-06T20:05:27.181Z,9.35
2023-02-06T20:08:01.562Z,11.90
2023-02-06T20:10:34.572Z,10.18
2023-02-06T20:13:08.337Z,11.63
2023-02-06T20:15:41.453Z,8.57
2023-02-06T20:18:14.382Z,9.73
2023-02-06T20:20:48.126Z,10.98
2023-02-06T20:23:22.408Z,10.80
2023-02-06T20:25:56.031Z,12.40
2023-02-06T20:28:29.043Z,10.60
2023-02-06T20:31:09.152Z,10.68
2023-02-06T20:33:42.551Z,12.27
2023-02-06T20:36:17.916Z,9.45
2023-02-06T20:38:54.025Z,10.25
2023-02-06T20:41:29.725Z,9.95
2023-02-06T20:44:02.698Z,11.40
2023-02-06T20:46:36.908Z,10.10
2023-02-06T20:49:15.065Z,11.63
2023-02-06T20:51:49.061Z,10.88
2023-02-06T20:54:23.626Z,13.15
2023-02-06T20:56:56.618Z,11.48
2023-02-06T20:59:29.534Z,9.65
2023-02-06T21:02:02.448Z,9.85
2023-02-06T21:04:35.464Z,11.35
2023-02-06T21:07:08.669Z,10.70
2023-02-06T21:09:43.124Z,9.23
2023-02-06T21:12:16.657Z,12.18
2023-02-06T21:14:49.511Z,13.57
2023-02-06T21:17:22.493Z,10.07
2023-02-06T21:19:55.406Z,16.20
2023-02-06T21:22:28.345Z,10.48
2023-02-06T21:25:02.628Z,9.60
2023-02-06T21:27:35.870Z,10.25
2023-02-06T21:30:12.211Z,9.82
2023-02-06T21:32:45.135Z,9.40
2023-02-06T21:35:18.113Z,8.25
2023-02-06T21:37:51.080Z,10.52
2023-02-06T21:40:25.721Z,10.65
2023-02-06T21:42:58.610Z,7.57
2023-02-06T21:45:31.483Z,7.15
2023-02-06T21:48:04.928Z,8.70
2023-02-06T21:50:39.590Z,8.88
2023-02-06T21:53:12.890Z,9.10
2023-02-06T21:55:47.489Z,8.43
2023-02-06T21:58:20.481Z,9.23
2023-02-06T22:00:53.385Z,8.02
2023-02-06T22:03:26.815Z,8.70
2023-02-06T22:06:08.508Z,6.90
2023-02-06T22:08:43.078Z,8.00
2023-02-06T22:11:19.450Z,6.53
2023-02-06T22:13:53.204Z,7.35
2023-02-06T22:16:26.796Z,7.20
2023-02-06T22:19:00.783Z,7.85
2023-02-06T22:21:35.099Z,8.90
2023-02-06T22:24:09.635Z,8.27
2023-02-06T22:26:44.716Z,9.15
2023-02-06T22:29:18.624Z,7.93
2023-02-06T22:31:51.458Z,7.30
2023-02-06T22:34:24.706Z,9.52
2023-02-06T22:36:57.822Z,8.38
2023-02-06T22:39:30.833Z,7.90
2023-02-06T22:42:05.338Z,8.52
2023-02-06T22:44:38.387Z,9.90
2023-02-06T22:47:11.270Z,8.65
2023-02-06T22:49:44.480Z,8.50
2023-02-06T22:52:34.573Z,8.35
2023-02-06T22:55:09.503Z,9.32
2023-02-06T22:57:43.734Z,9.48
2023-02-06T23:00:18.568Z,10.23
2023-02-06T23:02:51.424Z,10.57
2023-02-06T23:05:25.726Z,9.32
2023-02-06T23:07:58.644Z,9.52
2023-02-06T23:10:31.505Z,9.73
2023-02-06T23:13:05.770Z,9.27
2023-02-06T23:15:41.292Z,10.57
2023-02-06T23:18:14.533Z,8.70
2023-02-06T23:20:47.551Z,7.32
2023-02-06T23:23:20.494Z,8.30
2023-02-06T23:25:53.687Z,8.15
2023-02-06T23:28:28.290Z,11.73
2023-02-06T23:31:01.353Z,8.07
2023-02-06T23:33:34.825Z,7.40
2023-02-06T23:36:10.469Z,8.32
2023-02-06T23:38:44.237Z,10.98
2023-02-06T23:41:19.822Z,7.53
2023-02-06T23:43:56.993Z,7.40
2023-02-06T23:46:32.513Z,8.30
2023-02-06T23:49:06.468Z,9.30
2023-02-06T23:51:39.433Z,9.05
2023-02-06T23:54:12.478Z,7.72
2023-02-06T23:56:45.454Z,8.43
2023-02-06T23:59:19.680Z,8.90
